Time;durP1;ratioP1;P1;durP2;ratioP2;P2;SDS_P1;SDS_P2;PMS_P1;PMS_P2;Temp;Humidity;BMP_temperature;BMP_pressure;BME280_temperature;BME280_humidity;BME280_pressure;Samples;Min_cycle;Max_cycle;Signal;HPM_P1;HPM_P2
2024/04/16 00:01:13;;;;;;;1.10;0.10;;;;;;;;;;5321307;26;20016;-82
2024/04/16 00:03:40;;;;;;;0.73;0.20;;;;;;;;;;5343556;26;20011;-82
2024/04/16 00:06:07;;;;;;;1.45;0.20;;;;;;;;;;5316255;26;20051;-81
2024/04/16 00:08:34;;;;;;;2.00;0.30;;;;;;;;;;5321333;26;20059;-81
2024/04/16 00:11:01;;;;;;;2.95;0.30;;;;;;;;;;5320408;26;20013;-82
2024/04/16 00:13:28;;;;;;;1.38;0.43;;;;;;;;;;5319856;26;20055;-82
2024/04/16 00:15:55;;;;;;;1.38;0.52;;;;;;;;;;5333467;26;20016;-77
2024/04/16 00:18:22;;;;;;;2.33;0.30;;;;;;;;;;5306437;26;20005;-77
2024/04/16 00:20:49;;;;;;;0.88;0.25;;;;;;;;;;5317255;26;20016;-77
2024/04/16 00:23:15;;;;;;;1.50;0.35;;;;;;;;;;5316367;26;20055;-77
2024/04/16 00:25:42;;;;;;;0.65;0.25;;;;;;;;;;5318671;26;20113;-77
2024/04/16 00:28:09;;;;;;;2.78;0.63;;;;;;;;;;5323821;26;20016;-78
2024/04/16 00:30:36;;;;;;;2.67;0.30;;;;;;;;;;5325967;26;20009;-78
2024/04/16 00:33:02;;;;;;;1.83;0.32;;;;;;;;;;5322552;26;20013;-78
2024/04/16 00:35:29;;;;;;;0.90;0.40;;;;;;;;;;5319678;26;20018;-77
2024/04/16 00:37:57;;;;;;;1.33;0.40;;;;;;;;;;5323878;26;20018;-77
2024/04/16 00:40:23;;;;;;;2.38;0.47;;;;;;;;;;5319835;26;20017;-77
2024/04/16 00:42:51;;;;;;;1.70;0.30;;;;;;;;;;5327791;26;20381;-80
2024/04/16 00:45:18;;;;;;;4.72;0.57;;;;;;;;;;5302114;26;20030;-80
2024/04/16 00:47:45;;;;;;;0.93;0.20;;;;;;;;;;5320949;26;20004;-80
2024/04/16 00:50:12;;;;;;;2.83;0.52;;;;;;;;;;5320702;26;20036;-80
2024/04/16 00:52:39;;;;;;;1.85;0.40;;;;;;;;;;5320885;26;20005;-82
2024/04/16 00:55:06;;;;;;;1.70;0.40;;;;;;;;;;5319728;26;20020;-81
2024/04/16 00:57:33;;;;;;;1.13;0.28;;;;;;;;;;5319925;26;20013;-82
2024/04/16 01:00:00;;;;;;;1.88;0.40;;;;;;;;;;5315279;26;20017;-82
2024/04/16 01:02:27;;;;;;;0.32;0.30;;;;;;;;;;5321557;26;20458;-82
2024/04/16 01:04:54;;;;;;;4.18;0.60;;;;;;;;;;5349943;26;20013;-83
2024/04/16 01:07:21;;;;;;;2.05;0.35;;;;;;;;;;5316137;26;20012;-82
2024/04/16 01:09:48;;;;;;;1.33;0.30;;;;;;;;;;5320563;26;20019;-82
2024/04/16 01:12:15;;;;;;;2.10;0.47;;;;;;;;;;5320877;26;20029;-82
2024/04/16 01:14:41;;;;;;;1.27;0.80;;;;;;;;;;5347937;26;20020;-83
2024/04/16 01:17:08;;;;;;;1.73;0.40;;;;;;;;;;5320905;26;20016;-83
2024/04/16 01:19:35;;;;;;;1.83;0.40;;;;;;;;;;5322446;26;20058;-82
2024/04/16 01:22:02;;;;;;;0.93;0.30;;;;;;;;;;5325695;26;20005;-81
2024/04/16 01:24:29;;;;;;;3.03;0.40;;;;;;;;;;5324984;26;20032;-82
2024/04/16 01:27:08;;;;;;;2.15;0.40;;;;;;;;;;5356245;26;20032;-80
2024/04/16 01:29:35;;;;;;;1.05;0.60;;;;;;;;;;5321684;26;20016;-81
2024/04/16 01:32:01;;;;;;;1.17;0.30;;;;;;;;;;5351630;26;20009;-80
2024/04/16 01:34:28;;;;;;;2.40;0.45;;;;;;;;;;5345400;26;20001;-79
2024/04/16 01:36:55;;;;;;;0.73;0.50;;;;;;;;;;5301678;26;20005;-79
2024/04/16 01:39:22;;;;;;;1.02;0.70;;;;;;;;;;5343657;26;20085;-78
2024/04/16 01:41:49;;;;;;;2.47;0.57;;;;;;;;;;5302840;26;20036;-79
2024/04/16 01:44:16;;;;;;;0.38;0.30;;;;;;;;;;5329006;26;20019;-79
2024/04/16 01:46:43;;;;;;;2.08;0.40;;;;;;;;;;5352612;26;20024;-79
2024/04/16 01:49:09;;;;;;;1.92;0.40;;;;;;;;;;5327623;26;20571;-81
2024/04/16 01:51:36;;;;;;;1.05;0.50;;;;;;;;;;5301852;26;20008;-84
2024/04/16 01:54:03;;;;;;;1.38;0.40;;;;;;;;;;5339647;26;20005;-83
2024/04/16 01:56:30;;;;;;;2.53;0.73;;;;;;;;;;5369313;26;19996;-79
2024/04/16 01:58:56;;;;;;;0.95;0.55;;;;;;;;;;5349392;26;20056;-79
2024/04/16 02:01:23;;;;;;;2.25;0.55;;;;;;;;;;5363006;26;19996;-79
2024/04/16 02:03:50;;;;;;;1.80;0.88;;;;;;;;;;5313448;26;19993;-80
2024/04/16 02:06:17;;;;;;;1.60;0.30;;;;;;;;;;5334959;26;20045;-79
2024/04/16 02:08:43;;;;;;;1.67;0.75;;;;;;;;;;5290944;26;20351;-80
2024/04/16 02:11:10;;;;;;;2.35;0.50;;;;;;;;;;5296355;26;20028;-79
2024/04/16 02:13:37;;;;;;;5.95;1.35;;;;;;;;;;5358624;26;20013;-80
2024/04/16 02:16:04;;;;;;;2.78;0.50;;;;;;;;;;5301663;26;20019;-80
2024/04/16 02:18:31;;;;;;;3.70;0.60;;;;;;;;;;5315661;26;20013;-80
2024/04/16 02:20:58;;;;;;;0.85;0.50;;;;;;;;;;5314985;26;20350;-81
2024/04/16 02:23:25;;;;;;;4.57;1.42;;;;;;;;;;5286494;26;20020;-81
2024/04/16 02:25:55;;;;;;;2.55;0.40;;;;;;;;;;5315012;26;20482;-81
2024/04/16 02:28:22;;;;;;;1.98;0.35;;;;;;;;;;5287041;26;20049;-80
2024/04/16 02:30:48;;;;;;;4.68;0.90;;;;;;;;;;5287007;26;20898;-80
2024/04/16 02:33:15;;;;;;;3.80;0.95;;;;;;;;;;5315602;26;20086;-81
2024/04/16 02:35:42;;;;;;;4.45;0.70;;;;;;;;;;5315312;26;20013;-81
2024/04/16 02:38:09;;;;;;;5.80;1.05;;;;;;;;;;5316555;26;20339;-81
2024/04/16 02:40:36;;;;;;;4.85;1.15;;;;;;;;;;5299708;26;20082;-81
2024/04/16 02:43:03;;;;;;;4.97;0.50;;;;;;;;;;5343434;26;20005;-79
2024/04/16 02:45:30;;;;;;;2.33;0.75;;;;;;;;;;5292152;26;20016;-80
2024/04/16 02:47:57;;;;;;;1.67;0.50;;;;;;;;;;5315291;26;20518;-80
2024/04/16 02:50:24;;;;;;;3.45;0.93;;;;;;;;;;5287635;26;20097;-79
2024/04/16 02:52:51;;;;;;;2.28;0.82;;;;;;;;;;5291103;26;20005;-79
2024/04/16 02:55:19;;;;;;;3.22;0.73;;;;;;;;;;5318208;26;20082;-81
2024/04/16 02:57:46;;;;;;;6.15;0.85;;;;;;;;;;5288681;26;20020;-81
2024/04/16 03:00:13;;;;;;;3.88;1.20;;;;;;;;;;5317135;26;20009;-82
2024/04/16 03:02:39;;;;;;;5.07;1.15;;;;;;;;;;5288573;26;20055;-79
2024/04/16 03:05:06;;;;;;;3.00;1.00;;;;;;;;;;5315584;26;20009;-79
2024/04/16 03:07:33;;;;;;;4.53;0.93;;;;;;;;;;5287608;26;20501;-80
2024/04/16 03:10:00;;;;;;;4.47;1.20;;;;;;;;;;5302275;26;20041;-79
2024/04/16 03:12:27;;;;;;;2.47;1.08;;;;;;;;;;5313806;26;20001;-77
2024/04/16 03:14:53;;;;;;;5.05;1.88;;;;;;;;;;5313639;26;20082;-77
2024/04/16 03:17:20;;;;;;;5.03;0.90;;;;;;;;;;5299504;26;20001;-77
2024/04/16 03:19:47;;;;;;;2.60;0.70;;;;;;;;;;5285729;26;20362;-77
2024/04/16 03:22:14;;;;;;;2.33;0.73;;;;;;;;;;5285760;26;20005;-80
2024/04/16 03:24:41;;;;;;;2.42;0.80;;;;;;;;;;5330900;26;20464;-82
2024/04/16 03:27:08;;;;;;;3.47;1.00;;;;;;;;;;5287051;26;20001;-78
2024/04/16 03:29:35;;;;;;;4.97;1.63;;;;;;;;;;5314009;26;20005;-78
2024/04/16 03:32:02;;;;;;;5.38;1.73;;;;;;;;;;5314564;26;20009;-78
2024/04/16 03:34:29;;;;;;;4.88;1.50;;;;;;;;;;5314702;26;19997;-78
2024/04/16 03:36:58;;;;;;;5.15;1.10;;;;;;;;;;5314032;26;20009;-79
2024/04/16 03:39:25;;;;;;;8.75;1.48;;;;;;;;;;5342615;26;20023;-78
2024/04/16 03:41:52;;;;;;;4.05;1.33;;;;;;;;;;5307173;26;20451;-77
2024/04/16 03:44:18;;;;;;;8.35;1.60;;;;;;;;;;5315135;26;20016;-79
2024/04/16 03:46:45;;;;;;;5.85;1.10;;;;;;;;;;5326425;26;20040;-79
2024/04/16 03:49:12;;;;;;;4.57;0.75;;;;;;;;;;5319906;26;20005;-79
2024/04/16 03:51:41;;;;;;;2.38;0.70;;;;;;;;;;5322540;26;20013;-79
2024/04/16 03:54:08;;;;;;;2.97;0.65;;;;;;;;;;5317059;26;20079;-80
2024/04/16 03:56:35;;;;;;;1.48;0.60;;;;;;;;;;5330348;26;20038;-79
2024/04/16 03:59:15;;;;;;;8.85;0.93;;;;;;;;;;5324211;26;20006;-79
2024/04/16 04:01:42;;;;;;;5.93;1.48;;;;;;;;;;5328723;26;19997;-78
2024/04/16 04:04:09;;;;;;;4.75;1.65;;;;;;;;;;5321366;26;20005;-80
2024/04/16 04:06:36;;;;;;;3.97;0.90;;;;;;;;;;5315486;26;20005;-78
2024/04/16 04:09:03;;;;;;;5.78;1.63;;;;;;;;;;5316639;26;20012;-79
2024/04/16 04:11:30;;;;;;;7.00;1.02;;;;;;;;;;5324702;26;20081;-79
2024/04/16 04:13:56;;;;;;;3.60;1.00;;;;;;;;;;5340428;26;20005;-78
2024/04/16 04:16:23;;;;;;;2.67;0.90;;;;;;;;;;5319455;26;20004;-79
2024/04/16 04:18:51;;;;;;;3.05;0.75;;;;;;;;;;5317651;26;20359;-79
2024/04/16 04:21:18;;;;;;;2.72;0.75;;;;;;;;;;5314575;26;20005;-79
2024/04/16 04:23:45;;;;;;;3.60;1.20;;;;;;;;;;5318800;26;20413;-79
2024/04/16 04:26:11;;;;;;;8.23;1.67;;;;;;;;;;5321936;26;20005;-78
2024/04/16 04:28:38;;;;;;;7.45;1.05;;;;;;;;;;5327519;26;20008;-79
2024/04/16 04:31:15;;;;;;;6.88;1.08;;;;;;;;;;5325101;26;20001;-78
2024/04/16 04:33:42;;;;;;;5.82;1.40;;;;;;;;;;5300271;26;20470;-80
2024/04/16 04:36:11;;;;;;;6.78;1.10;;;;;;;;;;5287715;26;20005;-80
2024/04/16 04:38:38;;;;;;;5.57;0.93;;;;;;;;;;5322127;26;20001;-79
2024/04/16 04:41:05;;;;;;;7.88;1.13;;;;;;;;;;5350674;26;20015;-80
2024/04/16 04:43:32;;;;;;;5.18;1.20;;;;;;;;;;5315848;26;20001;-81
2024/04/16 04:45:59;;;;;;;4.82;1.45;;;;;;;;;;5318435;26;20005;-79
2024/04/16 04:48:25;;;;;;;3.38;0.98;;;;;;;;;;5332711;26;20005;-79
2024/04/16 04:50:53;;;;;;;4.45;1.55;;;;;;;;;;5318695;26;20426;-79
2024/04/16 04:53:20;;;;;;;4.30;1.20;;;;;;;;;;5319120;26;20005;-79
2024/04/16 04:55:47;;;;;;;3.28;1.23;;;;;;;;;;5328001;26;20477;-78
2024/04/16 04:58:13;;;;;;;8.07;1.40;;;;;;;;;;5317571;26;20014;-81
2024/04/16 05:00:40;;;;;;;7.07;1.10;;;;;;;;;;5321858;26;20019;-80
2024/04/16 05:03:07;;;;;;;4.78;1.45;;;;;;;;;;5323534;26;20001;-80
2024/04/16 05:05:34;;;;;;;5.88;1.83;;;;;;;;;;5322440;26;20087;-80
2024/04/16 05:08:00;;;;;;;6.35;1.05;;;;;;;;;;5320688;26;20009;-80
2024/04/16 05:10:27;;;;;;;9.45;1.33;;;;;;;;;;5309041;26;20009;-80
2024/04/16 05:12:54;;;;;;;4.03;1.05;;;;;;;;;;5324262;26;20462;-81
2024/04/16 05:15:21;;;;;;;7.25;1.10;;;;;;;;;;5305779;26;20063;-80
2024/04/16 05:17:47;;;;;;;5.35;1.02;;;;;;;;;;5332069;26;20532;-80
2024/04/16 05:20:15;;;;;;;11.32;1.17;;;;;;;;;;5327554;26;20021;-80
2024/04/16 05:22:43;;;;;;;7.22;1.15;;;;;;;;;;5330164;26;20008;-79
2024/04/16 05:25:10;;;;;;;8.07;1.70;;;;;;;;;;5323854;26;20499;-78
2024/04/16 05:27:37;;;;;;;5.05;1.10;;;;;;;;;;5316739;26;20008;-78
2024/04/16 05:30:05;;;;;;;7.10;1.45;;;;;;;;;;5319113;26;20016;-81
2024/04/16 05:32:31;;;;;;;5.53;0.90;;;;;;;;;;5320655;26;20008;-81
2024/04/16 05:34:58;;;;;;;2.78;1.20;;;;;;;;;;5320802;26;20016;-83
2024/04/16 05:37:25;;;;;;;3.25;0.88;;;;;;;;;;5319256;26;20013;-79
2024/04/16 05:39:52;;;;;;;3.58;1.10;;;;;;;;;;5319692;26;20005;-78
2024/04/16 05:42:18;;;;;;;6.43;1.40;;;;;;;;;;5309933;26;20014;-77
2024/04/16 05:44:45;;;;;;;6.57;1.15;;;;;;;;;;5299962;26;20005;-78
2024/04/16 05:47:15;;;;;;;4.00;1.23;;;;;;;;;;5317794;26;20074;-78
2024/04/16 05:49:42;;;;;;;5.78;1.10;;;;;;;;;;5320061;26;20469;-78
2024/04/16 05:52:09;;;;;;;5.50;1.38;;;;;;;;;;5321080;26;20059;-78
2024/04/16 05:54:39;;;;;;;2.63;1.00;;;;;;;;;;5319804;26;20001;-78
2024/04/16 05:57:05;;;;;;;7.65;2.58;;;;;;;;;;5333741;26;20507;-78
2024/04/16 05:59:32;;;;;;;5.05;2.15;;;;;;;;;;5289704;26;20499;-77
2024/04/16 06:01:59;;;;;;;6.13;1.42;;;;;;;;;;5317429;26;20005;-77
2024/04/16 06:04:27;;;;;;;3.85;0.93;;;;;;;;;;5331293;26;20009;-78
2024/04/16 06:06:53;;;;;;;5.28;1.73;;;;;;;;;;5331561;26;20455;-78
2024/04/16 06:09:20;;;;;;;8.48;1.90;;;;;;;;;;5303115;26;20010;-78
2024/04/16 06:11:48;;;;;;;9.93;3.33;;;;;;;;;;5307820;26;20053;-78
2024/04/16 06:14:15;;;;;;;10.40;2.80;;;;;;;;;;5341428;26;20037;-77
2024/04/16 06:16:42;;;;;;;7.10;2.67;;;;;;;;;;5316694;26;20082;-78
2024/04/16 06:19:08;;;;;;;5.15;1.95;;;;;;;;;;5318219;26;20048;-80
2024/04/16 06:21:35;;;;;;;12.90;3.03;;;;;;;;;;5331694;26;20015;-77
2024/04/16 06:24:02;;;;;;;16.42;4.18;;;;;;;;;;5313185;26;20083;-82
2024/04/16 06:26:29;;;;;;;9.00;3.03;;;;;;;;;;5318512;26;20056;-78
2024/04/16 06:28:56;;;;;;;11.13;2.55;;;;;;;;;;5332629;26;20052;-76
2024/04/16 06:31:23;;;;;;;11.25;3.20;;;;;;;;;;5313661;26;20004;-76
2024/04/16 06:33:50;;;;;;;6.85;2.38;;;;;;;;;;5315860;26;20059;-76
2024/04/16 06:36:17;;;;;;;8.95;3.08;;;;;;;;;;5311063;26;20016;-77
2024/04/16 06:38:44;;;;;;;7.88;2.00;;;;;;;;;;5291887;26;20324;-76
2024/04/16 06:41:11;;;;;;;9.75;2.88;;;;;;;;;;5343500;26;20505;-77
2024/04/16 06:43:38;;;;;;;5.80;1.60;;;;;;;;;;5313971;26;20015;-77
2024/04/16 06:46:05;;;;;;;6.15;1.60;;;;;;;;;;5313669;26;20016;-81
2024/04/16 06:48:32;;;;;;;4.75;1.50;;;;;;;;;;5324521;26;20024;-77
2024/04/16 06:50:59;;;;;;;2.95;0.98;;;;;;;;;;5321798;26;19998;-77
2024/04/16 06:53:26;;;;;;;8.18;1.65;;;;;;;;;;5326633;26;20017;-77
2024/04/16 06:55:59;;;;;;;4.80;1.17;;;;;;;;;;5333909;26;19993;-78
2024/04/16 06:58:26;;;;;;;;;;;;;;;;;;5321989;26;20079;-77
2024/04/16 07:00:53;;;;;;;6.38;1.20;;;;;;;;;;5317589;26;19937;-77
2024/04/16 07:03:20;;;;;;;7.40;0.88;;;;;;;;;;5317033;26;20406;-77
2024/04/16 07:05:47;;;;;;;2.60;0.85;;;;;;;;;;5319896;26;20005;-76
2024/04/16 07:08:14;;;;;;;6.03;1.17;;;;;;;;;;5333027;26;20004;-79
2024/04/16 07:10:40;;;;;;;6.00;1.50;;;;;;;;;;5343965;26;20009;-80
2024/04/16 07:13:07;;;;;;;7.20;1.05;;;;;;;;;;5318678;26;20000;-78
2024/04/16 07:15:34;;;;;;;6.20;0.98;;;;;;;;;;5329863;26;20370;-78
2024/04/16 07:18:01;;;;;;;7.68;1.42;;;;;;;;;;5315412;26;20402;-82
2024/04/16 07:20:28;;;;;;;6.78;0.90;;;;;;;;;;5314569;26;20008;-84
2024/04/16 07:22:55;;;;;;;5.10;1.10;;;;;;;;;;5337309;26;20017;-79
2024/04/16 07:25:22;;;;;;;3.85;1.08;;;;;;;;;;5315809;26;20484;-85
2024/04/16 07:27:48;;;;;;;4.05;0.70;;;;;;;;;;5315900;26;20045;-78
2024/04/16 07:30:18;;;;;;;3.92;0.80;;;;;;;;;;5287186;26;20012;-80
2024/04/16 07:32:45;;;;;;;5.05;1.08;;;;;;;;;;5314976;26;20005;-80
2024/04/16 07:35:12;;;;;;;5.10;1.02;;;;;;;;;;5302858;26;20072;-78
2024/04/16 07:37:39;;;;;;;3.53;1.10;;;;;;;;;;5307148;26;20013;-80
2024/04/16 07:40:06;;;;;;;4.68;1.05;;;;;;;;;;5318727;26;20354;-79
2024/04/16 07:42:32;;;;;;;8.77;0.93;;;;;;;;;;5346959;26;20351;-77
2024/04/16 07:44:59;;;;;;;4.00;0.70;;;;;;;;;;5333649;26;20015;-81
2024/04/16 07:47:26;;;;;;;4.28;0.50;;;;;;;;;;5317400;26;20017;-76
2024/04/16 07:49:53;;;;;;;1.55;0.57;;;;;;;;;;5315783;26;20444;-77
2024/04/16 07:52:19;;;;;;;2.70;1.08;;;;;;;;;;5345717;26;20005;-78
2024/04/16 07:54:46;;;;;;;2.88;0.82;;;;;;;;;;5330002;26;19997;-78
2024/04/16 07:57:13;;;;;;;2.08;0.63;;;;;;;;;;5325359;26;20009;-78
2024/04/16 07:59:40;;;;;;;3.45;0.50;;;;;;;;;;5324283;26;20061;-77
2024/04/16 08:02:06;;;;;;;3.80;0.82;;;;;;;;;;5320100;26;20513;-77
2024/04/16 08:04:33;;;;;;;6.07;0.52;;;;;;;;;;5317579;26;20038;-78
2024/04/16 08:07:00;;;;;;;2.95;0.40;;;;;;;;;;5316362;26;20005;-77
2024/04/16 08:09:27;;;;;;;2.30;0.60;;;;;;;;;;5315996;26;20005;-77
2024/04/16 08:11:54;;;;;;;3.33;0.70;;;;;;;;;;5317379;26;20471;-79
2024/04/16 08:14:22;;;;;;;5.03;0.60;;;;;;;;;;5319871;26;20005;-79
2024/04/16 08:16:48;;;;;;;6.97;0.90;;;;;;;;;;5317819;26;20005;-78
2024/04/16 08:19:15;;;;;;;2.10;0.60;;;;;;;;;;5319531;26;20001;-79
2024/04/16 08:21:43;;;;;;;3.90;0.93;;;;;;;;;;5319352;26;20340;-77
2024/04/16 08:24:10;;;;;;;4.03;0.40;;;;;;;;;;5310381;26;20501;-77
2024/04/16 08:26:37;;;;;;;4.93;0.68;;;;;;;;;;5343863;26;20005;-77
2024/04/16 08:29:04;;;;;;;1.05;0.50;;;;;;;;;;5344073;26;20023;-75
2024/04/16 08:31:34;;;;;;;2.60;0.77;;;;;;;;;;5320093;26;20016;-75
2024/04/16 08:34:02;;;;;;;1.35;0.50;;;;;;;;;;5339627;26;20068;-75
2024/04/16 08:36:32;;;;;;;3.50;0.85;;;;;;;;;;5341426;26;20009;-74
2024/04/16 08:38:59;;;;;;;2.92;0.85;;;;;;;;;;5312619;26;20009;-74
2024/04/16 08:41:26;;;;;;;3.92;0.50;;;;;;;;;;5346398;26;20008;-75
2024/04/16 08:43:53;;;;;;;3.55;0.85;;;;;;;;;;5313676;26;20002;-75
2024/04/16 08:46:19;;;;;;;2.17;0.50;;;;;;;;;;5339722;26;20014;-75
2024/04/16 08:48:46;;;;;;;6.20;0.82;;;;;;;;;;5333045;26;20023;-75
2024/04/16 08:51:13;;;;;;;2.25;0.50;;;;;;;;;;5328719;26;20009;-75
2024/04/16 08:53:41;;;;;;;2.25;0.52;;;;;;;;;;5327184;26;20025;-76
2024/04/16 08:56:11;;;;;;;2.50;0.50;;;;;;;;;;5334477;26;20013;-75
2024/04/16 08:58:40;;;;;;;2.88;0.70;;;;;;;;;;5337658;26;20017;-75
2024/04/16 09:01:07;;;;;;;5.63;0.70;;;;;;;;;;5313877;26;20024;-74
2024/04/16 09:03:34;;;;;;;7.90;0.80;;;;;;;;;;5314233;26;20375;-74
2024/04/16 09:06:01;;;;;;;7.20;1.42;;;;;;;;;;5311054;26;20024;-74
2024/04/16 09:08:28;;;;;;;2.88;0.80;;;;;;;;;;5316711;26;20356;-74
2024/04/16 09:10:54;;;;;;;5.63;0.88;;;;;;;;;;5306208;26;20020;-74
2024/04/16 09:13:21;;;;;;;1.05;0.60;;;;;;;;;;5310464;26;20001;-74
2024/04/16 09:15:48;;;;;;;5.38;0.82;;;;;;;;;;5291489;26;19998;-74
2024/04/16 09:18:21;;;;;;;6.85;0.80;;;;;;;;;;5331523;26;20020;-74
2024/04/16 09:20:48;;;;;;;4.15;0.80;;;;;;;;;;5315682;26;20075;-74
2024/04/16 09:23:15;;;;;;;2.70;0.82;;;;;;;;;;5330172;26;20002;-73
2024/04/16 09:25:42;;;;;;;1.67;0.50;;;;;;;;;;5340653;26;20020;-74
2024/04/16 09:28:10;;;;;;;2.47;0.68;;;;;;;;;;5338449;26;20012;-75
2024/04/16 09:30:37;;;;;;;2.53;0.40;;;;;;;;;;5307965;26;20000;-75
2024/04/16 09:33:04;;;;;;;1.60;0.60;;;;;;;;;;5346223;26;20459;-75
2024/04/16 09:35:37;;;;;;;3.45;0.77;;;;;;;;;;5312732;26;20089;-75
2024/04/16 09:38:08;;;;;;;4.95;0.90;;;;;;;;;;5315266;26;20414;-75
2024/04/16 09:40:35;;;;;;;1.70;0.40;;;;;;;;;;5324624;26;20528;-75
2024/04/16 09:43:03;;;;;;;1.48;0.57;;;;;;;;;;5326505;26;20663;-75
2024/04/16 09:45:33;;;;;;;0.82;0.40;;;;;;;;;;5331643;26;20425;-75
2024/04/16 09:48:01;;;;;;;1.95;0.70;;;;;;;;;;5329394;26;20005;-75
2024/04/16 09:50:29;;;;;;;2.42;0.70;;;;;;;;;;5338299;26;20479;-76
2024/04/16 09:52:59;;;;;;;1.88;0.70;;;;;;;;;;5330663;26;20482;-76
2024/04/16 09:55:26;;;;;;;3.03;0.70;;;;;;;;;;5286655;26;20019;-76
2024/04/16 09:57:54;;;;;;;3.20;0.50;;;;;;;;;;5315091;26;20010;-76
2024/04/16 10:00:21;;;;;;;5.50;0.75;;;;;;;;;;5327422;26;20465;-75
2024/04/16 10:02:49;;;;;;;1.60;0.85;;;;;;;;;;5343138;26;20033;-76
2024/04/16 10:05:16;;;;;;;5.30;0.52;;;;;;;;;;5312672;26;20045;-76
2024/04/16 10:07:46;;;;;;;1.02;0.35;;;;;;;;;;5341147;26;20023;-76
2024/04/16 10:10:13;;;;;;;3.83;0.43;;;;;;;;;;5327224;26;20057;-76
2024/04/16 10:12:42;;;;;;;4.55;0.57;;;;;;;;;;5312290;26;20739;-80
2024/04/16 10:15:12;;;;;;;3.40;0.70;;;;;;;;;;5325960;26;20005;-75
2024/04/16 10:17:51;;;;;;;3.95;0.30;;;;;;;;;;5305106;26;20076;-76
2024/04/16 10:20:20;;;;;;;6.88;1.13;;;;;;;;;;5297739;26;20010;-76
2024/04/16 10:22:57;;;;;;;1.60;0.38;;;;;;;;;;5323613;26;20025;-75
2024/04/16 10:25:29;;;;;;;1.63;0.43;;;;;;;;;;5336975;26;20053;-75
2024/04/16 10:27:57;;;;;;;1.77;0.52;;;;;;;;;;5314574;26;20005;-76
2024/04/16 10:30:27;;;;;;;1.58;0.40;;;;;;;;;;5334140;26;20425;-78
2024/04/16 10:32:55;;;;;;;2.35;0.57;;;;;;;;;;5333741;26;20077;-79
2024/04/16 10:35:22;;;;;;;1.10;0.30;;;;;;;;;;5334584;26;20328;-74
2024/04/16 10:37:50;;;;;;;1.58;0.32;;;;;;;;;;5309643;26;20048;-74
2024/04/16 10:40:27;;;;;;;3.67;0.47;;;;;;;;;;5331517;26;20016;-74
2024/04/16 10:43:01;;;;;;;2.08;0.60;;;;;;;;;;5295376;26;20018;-76
2024/04/16 10:45:31;;;;;;;2.10;0.60;;;;;;;;;;5322530;26;20390;-75
2024/04/16 10:48:00;;;;;;;1.33;0.60;;;;;;;;;;5296342;26;20040;-76
2024/04/16 10:50:27;;;;;;;2.72;0.60;;;;;;;;;;5320698;26;20021;-75
2024/04/16 10:52:55;;;;;;;2.88;0.40;;;;;;;;;;5291995;26;20041;-76
2024/04/16 10:55:22;;;;;;;1.75;0.45;;;;;;;;;;5328066;26;20008;-75
2024/04/16 10:57:49;;;;;;;2.10;0.35;;;;;;;;;;5315639;26;20021;-75
2024/04/16 11:00:17;;;;;;;0.40;0.40;;;;;;;;;;5310542;26;20001;-74
2024/04/16 11:02:45;;;;;;;2.25;0.50;;;;;;;;;;5303225;26;20019;-75
2024/04/16 11:05:17;;;;;;;0.75;0.30;;;;;;;;;;5329838;26;20005;-75
2024/04/16 11:07:44;;;;;;;1.85;0.47;;;;;;;;;;5330246;26;20478;-74
2024/04/16 11:10:12;;;;;;;2.90;0.68;;;;;;;;;;5329340;26;20521;-74
2024/04/16 11:12:39;;;;;;;1.15;0.47;;;;;;;;;;5312644;26;20000;-74
2024/04/16 11:15:06;;;;;;;4.20;0.50;;;;;;;;;;5337243;26;20001;-77
2024/04/16 11:17:33;;;;;;;2.33;0.60;;;;;;;;;;5313916;26;20006;-76
2024/04/16 11:20:01;;;;;;;1.73;0.50;;;;;;;;;;5304243;26;20009;-77
2024/04/16 11:22:28;;;;;;;4.47;0.50;;;;;;;;;;5330590;26;20023;-74
2024/04/16 11:24:55;;;;;;;6.25;0.98;;;;;;;;;;5339066;26;20091;-74
2024/04/16 11:27:23;;;;;;;0.60;0.25;;;;;;;;;;5343250;26;20033;-73
2024/04/16 11:29:51;;;;;;;0.32;0.22;;;;;;;;;;5335215;26;20437;-73
2024/04/16 11:32:18;;;;;;;0.88;0.20;;;;;;;;;;5359496;26;20005;-73
2024/04/16 11:34:46;;;;;;;2.35;0.70;;;;;;;;;;5338323;26;19989;-73
2024/04/16 11:37:14;;;;;;;1.85;0.40;;;;;;;;;;5359260;26;20016;-74
2024/04/16 11:39:42;;;;;;;1.17;0.70;;;;;;;;;;5319309;26;20005;-75
2024/04/16 11:42:09;;;;;;;2.83;1.20;;;;;;;;;;5336308;26;20001;-74
2024/04/16 11:44:40;;;;;;;1.42;0.28;;;;;;;;;;5318290;26;20017;-73
2024/04/16 11:47:08;;;;;;;1.27;0.32;;;;;;;;;;5304020;26;20086;-73
2024/04/16 11:49:36;;;;;;;1.38;0.40;;;;;;;;;;5319548;26;20074;-74
2024/04/16 11:52:03;;;;;;;2.15;0.43;;;;;;;;;;5317658;26;20004;-74
2024/04/16 11:54:34;;;;;;;2.40;1.05;;;;;;;;;;5315382;26;20005;-74
2024/04/16 11:57:03;;;;;;;1.98;0.68;;;;;;;;;;5318801;26;20078;-73
2024/04/16 11:59:31;;;;;;;0.90;0.32;;;;;;;;;;5278153;26;20353;-74
2024/04/16 12:01:58;;;;;;;1.13;0.30;;;;;;;;;;5313093;26;20083;-73
2024/04/16 12:04:26;;;;;;;0.30;0.30;;;;;;;;;;5312982;26;20020;-72
2024/04/16 12:06:53;;;;;;;0.95;0.45;;;;;;;;;;5338506;26;20009;-75
2024/04/16 12:09:20;;;;;;;3.90;0.40;;;;;;;;;;5340361;26;20027;-72
2024/04/16 12:11:47;;;;;;;2.38;0.28;;;;;;;;;;5309237;26;20050;-74
2024/04/16 12:14:14;;;;;;;0.40;0.40;;;;;;;;;;5329724;26;20087;-73
2024/04/16 12:16:41;;;;;;;0.50;0.20;;;;;;;;;;5301229;26;20072;-74
2024/04/16 12:19:08;;;;;;;4.85;0.40;;;;;;;;;;5338057;26;20004;-76
2024/04/16 12:21:35;;;;;;;0.75;0.32;;;;;;;;;;5326223;26;20092;-73
2024/04/16 12:24:02;;;;;;;1.42;0.30;;;;;;;;;;5331034;26;20024;-74
2024/04/16 12:26:29;;;;;;;0.50;0.20;;;;;;;;;;5325812;26;20008;-73
2024/04/16 12:28:58;;;;;;;2.42;0.38;;;;;;;;;;5332563;26;20016;-73
2024/04/16 12:31:26;;;;;;;1.05;0.40;;;;;;;;;;5335364;26;20528;-74
2024/04/16 12:33:53;;;;;;;2.00;0.80;;;;;;;;;;5331926;26;20475;-77
2024/04/16 12:36:21;;;;;;;1.42;0.40;;;;;;;;;;5307941;26;20087;-75
2024/04/16 12:38:48;;;;;;;0.75;0.30;;;;;;;;;;5303255;26;20001;-73
2024/04/16 12:41:15;;;;;;;2.40;0.40;;;;;;;;;;5337738;26;20013;-73
2024/04/16 12:43:41;;;;;;;1.17;0.50;;;;;;;;;;5310312;26;20005;-73
2024/04/16 12:46:09;;;;;;;3.25;0.40;;;;;;;;;;5294042;26;20013;-73
2024/04/16 12:48:36;;;;;;;0.98;0.32;;;;;;;;;;5311386;26;20005;-73
2024/04/16 12:51:04;;;;;;;1.25;0.50;;;;;;;;;;5293969;26;20425;-75
2024/04/16 12:53:31;;;;;;;1.50;0.30;;;;;;;;;;5325837;26;20012;-72
2024/04/16 12:55:59;;;;;;;2.58;0.70;;;;;;;;;;5312835;26;20033;-74
2024/04/16 12:58:26;;;;;;;4.03;0.50;;;;;;;;;;5334898;26;20070;-72
2024/04/16 13:00:53;;;;;;;1.92;0.60;;;;;;;;;;5306106;26;20083;-72
2024/04/16 13:03:20;;;;;;;0.30;0.20;;;;;;;;;;5331247;26;20870;-71
2024/04/16 13:05:47;;;;;;;0.55;0.30;;;;;;;;;;5333412;26;20016;-71
2024/04/16 13:08:14;;;;;;;2.97;0.32;;;;;;;;;;5305412;26;20082;-72
2024/04/16 13:10:46;;;;;;;0.80;0.40;;;;;;;;;;5311373;26;20020;-72
2024/04/16 13:13:13;;;;;;;1.13;0.50;;;;;;;;;;5325000;26;20005;-75
2024/04/16 13:15:39;;;;;;;0.90;0.35;;;;;;;;;;5309804;26;20463;-74
2024/04/16 13:18:09;;;;;;;0.35;0.35;;;;;;;;;;5290329;26;20085;-73
2024/04/16 13:20:36;;;;;;;1.75;0.30;;;;;;;;;;5300201;26;20016;-73
2024/04/16 13:23:03;;;;;;;1.05;0.40;;;;;;;;;;5304097;26;20001;-72
2024/04/16 13:25:29;;;;;;;0.50;0.25;;;;;;;;;;5323214;26;20001;-72
2024/04/16 13:27:56;;;;;;;0.98;0.30;;;;;;;;;;5332562;26;20024;-72
2024/04/16 13:30:23;;;;;;;1.00;0.35;;;;;;;;;;5340165;26;20416;-73
2024/04/16 13:32:55;;;;;;;0.60;0.20;;;;;;;;;;5336541;26;20012;-73
2024/04/16 13:35:22;;;;;;;;;;;;;;;;;;5313394;26;20332;-72
2024/04/16 13:37:49;;;;;;;0.38;0.10;;;;;;;;;;5311031;26;20303;-72
2024/04/16 13:40:16;;;;;;;4.28;0.30;;;;;;;;;;5330567;26;20114;-72
2024/04/16 13:42:43;;;;;;;1.98;0.35;;;;;;;;;;5310181;26;20002;-72
2024/04/16 13:45:09;;;;;;;3.78;0.40;;;;;;;;;;5321547;26;20001;-72
2024/04/16 13:47:36;;;;;;;0.88;0.30;;;;;;;;;;5297027;26;20005;-72
2024/04/16 13:50:03;;;;;;;10.60;0.45;;;;;;;;;;5321961;26;20013;-72
2024/04/16 13:52:30;;;;;;;0.73;0.20;;;;;;;;;;5301234;26;20075;-71
2024/04/16 13:54:57;;;;;;;1.67;0.20;;;;;;;;;;5319615;26;20005;-72
2024/04/16 13:57:23;;;;;;;0.32;0.28;;;;;;;;;;5334549;26;20075;-73
2024/04/16 13:59:51;;;;;;;0.63;0.00;;;;;;;;;;5334372;26;20005;-72
2024/04/16 14:02:18;;;;;;;1.55;0.40;;;;;;;;;;5336009;26;20018;-72
2024/04/16 14:04:44;;;;;;;0.47;0.10;;;;;;;;;;5304400;26;20005;-72
2024/04/16 14:07:11;;;;;;;0.25;0.20;;;;;;;;;;5325034;26;20017;-72
2024/04/16 14:09:38;;;;;;;0.45;0.22;;;;;;;;;;5309602;26;20019;-72
2024/04/16 14:12:05;;;;;;;1.95;0.60;;;;;;;;;;5293743;26;20005;-72
2024/04/16 14:14:32;;;;;;;3.22;0.38;;;;;;;;;;5319031;26;20087;-72
2024/04/16 14:16:59;;;;;;;1.10;0.22;;;;;;;;;;5322901;26;20013;-72
2024/04/16 14:19:26;;;;;;;1.52;0.38;;;;;;;;;;5323249;26;20001;-72
2024/04/16 14:21:53;;;;;;;0.75;0.28;;;;;;;;;;5331712;26;20006;-72
2024/04/16 14:24:25;;;;;;;4.63;0.30;;;;;;;;;;5328176;26;20002;-77
2024/04/16 14:26:51;;;;;;;0.32;0.20;;;;;;;;;;5313271;26;20024;-72
2024/04/16 14:29:18;;;;;;;2.80;0.40;;;;;;;;;;5334274;26;20005;-73
2024/04/16 14:31:45;;;;;;;0.55;0.55;;;;;;;;;;5332312;26;20762;-73
2024/04/16 14:34:12;;;;;;;1.02;0.30;;;;;;;;;;5333690;26;20083;-72
2024/04/16 14:36:39;;;;;;;0.65;0.20;;;;;;;;;;5310628;26;20470;-73
2024/04/16 14:39:05;;;;;;;0.40;0.25;;;;;;;;;;5321453;26;20013;-73
2024/04/16 14:41:35;;;;;;;0.32;0.20;;;;;;;;;;5307661;26;20019;-73
2024/04/16 14:44:02;;;;;;;2.17;0.40;;;;;;;;;;5322913;26;20002;-73